Time;durP1;ratioP1;P1;durP2;ratioP2;P2;SDS_P1;SDS_P2;PMS_P1;PMS_P2;Temp;Humidity;BMP_temperature;BMP_pressure;BME280_temperature;BME280_humidity;BME280_pressure;Samples;Min_cycle;Max_cycle;Signal;HPM_P1;HPM_P2
2021/01/01 00:01:26;;;;;;;139.15;73.22;;;;;;;;;;5069182;28;19938;-51
2021/01/01 00:03:52;;;;;;;161.88;83.07;;;;;;;;;;5074390;28;20039;-54
2021/01/01 00:06:18;;;;;;;149.23;81.22;;;;;;;;;;5074615;28;20027;-53
2021/01/01 00:08:44;;;;;;;128.00;73.10;;;;;;;;;;5074164;28;20044;-52
2021/01/01 00:11:14;;;;;;;121.65;66.45;;;;;;;;;;5074002;28;20036;-53
2021/01/01 00:13:40;;;;;;;121.53;68.05;;;;;;;;;;5074726;28;20456;-53
2021/01/01 00:16:06;;;;;;;102.40;57.58;;;;;;;;;;5074588;28;20033;-53
2021/01/01 00:18:32;;;;;;;104.55;57.13;;;;;;;;;;5074720;28;20034;-53
2021/01/01 00:20:58;;;;;;;116.20;64.55;;;;;;;;;;5073527;28;20029;-53
2021/01/01 00:23:24;;;;;;;111.53;60.45;;;;;;;;;;5081878;28;20078;-52
2021/01/01 00:25:50;;;;;;;107.97;58.17;;;;;;;;;;5075378;28;20132;-52
2021/01/01 00:28:16;;;;;;;120.22;65.25;;;;;;;;;;5074236;28;20032;-53
2021/01/01 00:30:42;;;;;;;124.85;70.95;;;;;;;;;;5073841;28;20115;-51
2021/01/01 00:33:09;;;;;;;235.73;115.30;;;;;;;;;;5074111;28;20086;-53
2021/01/01 00:35:35;;;;;;;160.02;83.18;;;;;;;;;;5073919;28;20384;-52
2021/01/01 00:38:01;;;;;;;209.60;112.45;;;;;;;;;;5074539;28;20016;-52
2021/01/01 00:40:27;;;;;;;134.45;73.13;;;;;;;;;;5074178;28;20025;-51
2021/01/01 00:42:53;;;;;;;116.30;64.60;;;;;;;;;;5074018;28;20028;-57
2021/01/01 00:45:19;;;;;;;106.03;60.45;;;;;;;;;;5073985;28;20560;-57
2021/01/01 00:47:48;;;;;;;139.85;76.75;;;;;;;;;;5074125;28;20373;-54
2021/01/01 00:50:15;;;;;;;122.15;64.93;;;;;;;;;;5073886;28;20571;-53
2021/01/01 00:52:41;;;;;;;135.05;75.93;;;;;;;;;;5055776;28;20132;-54
2021/01/01 00:55:07;;;;;;;146.75;79.57;;;;;;;;;;5073915;28;20024;-53
2021/01/01 00:57:34;;;;;;;120.93;65.43;;;;;;;;;;5073934;28;20040;-53
2021/01/01 01:00:00;;;;;;;117.22;67.20;;;;;;;;;;5073472;28;20020;-52
2021/01/01 01:02:26;;;;;;;172.57;88.03;;;;;;;;;;5073785;28;20028;-53
2021/01/01 01:04:52;;;;;;;164.02;87.40;;;;;;;;;;5073475;28;20491;-54
2021/01/01 01:07:18;;;;;;;134.10;72.80;;;;;;;;;;5073928;28;20380;-53
2021/01/01 01:09:45;;;;;;;128.85;70.40;;;;;;;;;;5073703;28;20048;-53
2021/01/01 01:12:11;;;;;;;139.40;73.22;;;;;;;;;;5073481;28;20048;-54
2021/01/01 01:14:37;;;;;;;141.52;75.70;;;;;;;;;;5073151;28;20471;-54
2021/01/01 01:17:03;;;;;;;105.57;58.63;;;;;;;;;;5073663;28;20028;-54
2021/01/01 01:19:29;;;;;;;112.25;60.63;;;;;;;;;;5073346;28;20029;-52
2021/01/01 01:21:55;;;;;;;116.05;64.28;;;;;;;;;;5073260;28;20048;-53
2021/01/01 01:24:21;;;;;;;129.45;72.97;;;;;;;;;;5072323;28;20090;-53
2021/01/01 01:26:47;;;;;;;200.80;107.25;;;;;;;;;;5059440;28;20553;-51
2021/01/01 01:29:13;;;;;;;176.43;91.20;;;;;;;;;;5055625;28;20037;-52
2021/01/01 01:31:39;;;;;;;159.98;87.53;;;;;;;;;;5055272;28;20028;-53
2021/01/01 01:34:05;;;;;;;137.20;74.63;;;;;;;;;;5057770;28;20391;-51
2021/01/01 01:36:32;;;;;;;140.18;74.60;;;;;;;;;;5053536;28;20033;-51
2021/01/01 01:38:58;;;;;;;170.63;91.57;;;;;;;;;;5058061;28;20013;-52
2021/01/01 01:41:24;;;;;;;174.68;93.55;;;;;;;;;;5061451;28;20037;-53
2021/01/01 01:43:50;;;;;;;180.32;98.95;;;;;;;;;;5067180;28;20444;-52
2021/01/01 01:46:16;;;;;;;162.32;89.97;;;;;;;;;;5055634;28;20024;-53
2021/01/01 01:48:42;;;;;;;169.00;89.65;;;;;;;;;;5053787;28;20036;-53
2021/01/01 01:51:10;;;;;;;149.07;76.10;;;;;;;;;;5061228;28;20032;-52
2021/01/01 01:53:44;;;;;;;124.95;63.92;;;;;;;;;;5064258;28;20025;-52
2021/01/01 01:56:11;;;;;;;116.85;66.43;;;;;;;;;;5067987;28;20052;-53
2021/01/01 01:58:37;;;;;;;117.90;66.53;;;;;;;;;;5072851;28;20532;-53
2021/01/01 02:01:04;;;;;;;116.40;62.35;;;;;;;;;;5072361;28;20074;-53
2021/01/01 02:03:30;;;;;;;113.65;61.50;;;;;;;;;;5072329;28;20016;-53
2021/01/01 02:05:57;;;;;;;97.75;54.75;;;;;;;;;;5072945;28;20107;-54
2021/01/01 02:08:24;;;;;;;105.93;58.55;;;;;;;;;;5072474;28;20487;-52
2021/01/01 02:10:54;;;;;;;115.25;63.53;;;;;;;;;;5072626;28;20567;-54
2021/01/01 02:13:20;;;;;;;111.78;61.60;;;;;;;;;;5071741;28;20025;-58
2021/01/01 02:15:46;;;;;;;112.78;61.53;;;;;;;;;;5072707;28;20035;-53
2021/01/01 02:18:12;;;;;;;112.07;58.38;;;;;;;;;;5072376;28;20101;-53
2021/01/01 02:20:38;;;;;;;110.47;58.17;;;;;;;;;;5072567;28;20082;-53
2021/01/01 02:23:04;;;;;;;124.95;65.13;;;;;;;;;;5072377;28;20051;-53
2021/01/01 02:25:30;;;;;;;114.00;58.17;;;;;;;;;;5072379;28;20049;-53
2021/01/01 02:27:57;;;;;;;108.78;54.78;;;;;;;;;;5072373;28;20547;-53
2021/01/01 02:30:23;;;;;;;104.68;53.83;;;;;;;;;;5072074;28;20076;-53
2021/01/01 02:32:50;;;;;;;88.68;46.80;;;;;;;;;;5072192;28;20372;-53
2021/01/01 02:35:16;;;;;;;81.38;43.55;;;;;;;;;;5072423;28;20028;-53
2021/01/01 02:37:42;;;;;;;74.45;39.25;;;;;;;;;;5072330;28;20464;-53
2021/01/01 02:40:08;;;;;;;62.97;33.95;;;;;;;;;;5072361;28;20533;-53
2021/01/01 02:42:34;;;;;;;79.20;40.88;;;;;;;;;;5072496;28;20029;-53
2021/01/01 02:45:01;;;;;;;75.13;39.25;;;;;;;;;;5058181;28;20044;-53
2021/01/01 02:47:27;;;;;;;80.47;40.80;;;;;;;;;;5072375;28;20028;-53
2021/01/01 02:49:53;;;;;;;74.43;40.35;;;;;;;;;;5070844;28;20041;-54
2021/01/01 02:52:19;;;;;;;86.47;42.67;;;;;;;;;;5071798;28;20036;-53
2021/01/01 02:54:46;;;;;;;85.53;47.80;;;;;;;;;;5071597;28;20040;-53
2021/01/01 02:57:12;;;;;;;83.43;45.22;;;;;;;;;;5071950;28;20096;-53
2021/01/01 02:59:38;;;;;;;73.07;39.20;;;;;;;;;;5070648;28;20055;-53
2021/01/01 03:02:04;;;;;;;69.93;38.17;;;;;;;;;;5036398;28;20066;-52
2021/01/01 03:04:30;;;;;;;71.70;38.88;;;;;;;;;;5051998;28;20479;-52
2021/01/01 03:06:56;;;;;;;79.43;41.88;;;;;;;;;;5065629;28;20052;-52
2021/01/01 03:09:22;;;;;;;68.63;37.70;;;;;;;;;;5054364;28;20036;-52
2021/01/01 03:11:48;;;;;;;80.15;42.63;;;;;;;;;;5053963;28;20365;-52
2021/01/01 03:14:14;;;;;;;73.68;37.53;;;;;;;;;;5054146;28;20445;-52
2021/01/01 03:16:40;;;;;;;75.95;40.67;;;;;;;;;;5051452;28;20504;-51
2021/01/01 03:19:06;;;;;;;82.63;44.42;;;;;;;;;;5056222;28;20028;-51
2021/01/01 03:21:32;;;;;;;87.70;48.15;;;;;;;;;;5053421;28;20465;-51
2021/01/01 03:23:58;;;;;;;93.85;47.72;;;;;;;;;;5052524;28;20532;-52
2021/01/01 03:26:24;;;;;;;79.57;42.97;;;;;;;;;;5061232;28;20060;-53
2021/01/01 03:28:50;;;;;;;70.93;37.30;;;;;;;;;;5071488;28;20039;-53
2021/01/01 03:31:16;;;;;;;62.88;35.53;;;;;;;;;;5071625;28;20024;-53
2021/01/01 03:33:42;;;;;;;68.22;36.40;;;;;;;;;;5071868;28;20233;-53
2021/01/01 03:36:10;;;;;;;80.63;43.53;;;;;;;;;;5071495;28;20017;-53
2021/01/01 03:38:36;;;;;;;82.60;44.55;;;;;;;;;;5071434;28;20021;-53
2021/01/01 03:41:02;;;;;;;74.43;41.60;;;;;;;;;;5071651;28;20035;-53
2021/01/01 03:43:28;;;;;;;75.28;39.72;;;;;;;;;;5071755;28;20056;-52
2021/01/01 03:45:54;;;;;;;84.13;45.92;;;;;;;;;;5071533;28;20025;-53
2021/01/01 03:48:20;;;;;;;90.68;47.33;;;;;;;;;;5071430;28;20032;-53
2021/01/01 03:50:46;;;;;;;76.72;41.42;;;;;;;;;;5071024;28;20040;-54
2021/01/01 03:53:12;;;;;;;76.00;40.67;;;;;;;;;;5071187;28;20025;-51
2021/01/01 03:55:40;;;;;;;88.80;46.05;;;;;;;;;;5071528;28;20499;-51
2021/01/01 03:58:06;;;;;;;82.07;44.92;;;;;;;;;;5071239;28;20077;-51
2021/01/01 04:00:32;;;;;;;79.03;42.97;;;;;;;;;;5071448;28;20392;-53
2021/01/01 04:02:58;;;;;;;84.45;43.72;;;;;;;;;;5074553;28;20024;-52
2021/01/01 04:05:24;;;;;;;80.80;42.13;;;;;;;;;;5074663;28;20025;-53
2021/01/01 04:07:50;;;;;;;77.50;40.30;;;;;;;;;;5074841;28;20060;-53
2021/01/01 04:10:16;;;;;;;80.95;42.25;;;;;;;;;;5074519;28;20033;-53
2021/01/01 04:12:42;;;;;;;76.70;41.55;;;;;;;;;;5074762;28;20031;-53
2021/01/01 04:15:08;;;;;;;81.80;43.83;;;;;;;;;;5074661;28;20024;-53
2021/01/01 04:17:35;;;;;;;122.55;47.08;;;;;;;;;;5074603;28;20524;-52
2021/01/01 04:20:01;;;;;;;92.30;42.78;;;;;;;;;;5074202;28;20032;-52
2021/01/01 04:22:27;;;;;;;92.80;41.30;;;;;;;;;;5084445;28;20104;-53
2021/01/01 04:24:53;;;;;;;149.35;52.28;;;;;;;;;;5074096;28;20094;-52
2021/01/01 04:27:19;;;;;;;297.48;61.65;;;;;;;;;;5074325;28;20031;-53
2021/01/01 04:29:45;;;;;;;205.60;53.75;;;;;;;;;;5074312;28;20032;-53
2021/01/01 04:32:11;;;;;;;214.38;51.97;;;;;;;;;;5074437;28;20028;-53
2021/01/01 04:34:37;;;;;;;242.32;59.40;;;;;;;;;;5074541;28;20078;-53
2021/01/01 04:37:03;;;;;;;147.50;52.28;;;;;;;;;;5074323;28;20028;-52
2021/01/01 04:39:29;;;;;;;150.73;54.38;;;;;;;;;;5074316;28;20027;-52
2021/01/01 04:41:56;;;;;;;135.25;45.90;;;;;;;;;;5074382;28;20109;-53
2021/01/01 04:44:26;;;;;;;177.35;52.78;;;;;;;;;;5074231;28;20013;-52
2021/01/01 04:46:52;;;;;;;151.20;51.67;;;;;;;;;;5074431;28;20116;-52
2021/01/01 04:49:19;;;;;;;135.50;48.22;;;;;;;;;;5078667;28;20111;-53
2021/01/01 04:51:45;;;;;;;134.10;50.55;;;;;;;;;;5074315;28;20032;-53
2021/01/01 04:54:12;;;;;;;390.05;65.07;;;;;;;;;;5073847;28;20104;-53
2021/01/01 04:56:45;;;;;;;320.00;64.78;;;;;;;;;;5074217;28;20024;-52
2021/01/01 04:59:11;;;;;;;366.17;63.60;;;;;;;;;;5074075;28;20077;-53
2021/01/01 05:01:41;;;;;;;353.90;69.47;;;;;;;;;;5074068;28;20353;-53
2021/01/01 05:04:07;;;;;;;328.15;71.35;;;;;;;;;;5074051;28;20016;-51
2021/01/01 05:06:35;;;;;;;217.05;73.43;;;;;;;;;;5073944;28;20032;-53
2021/01/01 05:09:01;;;;;;;172.23;63.78;;;;;;;;;;5073756;28;20027;-52
2021/01/01 05:11:27;;;;;;;164.52;54.67;;;;;;;;;;5073902;28;20495;-52
2021/01/01 05:13:57;;;;;;;160.85;58.15;;;;;;;;;;5073615;28;20067;-53
2021/01/01 05:16:23;;;;;;;129.95;50.03;;;;;;;;;;5073484;28;20090;-51
2021/01/01 05:18:49;;;;;;;165.80;55.13;;;;;;;;;;5077498;28;20384;-53
2021/01/01 05:21:27;;;;;;;192.55;61.45;;;;;;;;;;5073654;28;20035;-53
2021/01/01 05:23:57;;;;;;;199.27;57.45;;;;;;;;;;5073110;28;20098;-52
2021/01/01 05:26:27;;;;;;;258.75;57.60;;;;;;;;;;5073602;28;20033;-53
2021/01/01 05:28:54;;;;;;;230.07;62.13;;;;;;;;;;5073367;28;20024;-53
2021/01/01 05:31:22;;;;;;;219.10;65.30;;;;;;;;;;5055606;28;20401;-51
2021/01/01 05:33:52;;;;;;;381.17;63.78;;;;;;;;;;5073514;28;20028;-53
2021/01/01 05:36:27;;;;;;;297.15;64.22;;;;;;;;;;5073522;28;20032;-53
2021/01/01 05:38:53;;;;;;;344.20;78.80;;;;;;;;;;5073142;28;20162;-53
2021/01/01 05:41:29;;;;;;;226.80;72.22;;;;;;;;;;5073334;28;20043;-53
2021/01/01 05:44:05;;;;;;;339.52;75.20;;;;;;;;;;5073258;28;20021;-53
2021/01/01 05:46:31;;;;;;;325.98;70.65;;;;;;;;;;5060132;28;20551;-53
2021/01/01 05:49:03;;;;;;;198.57;63.28;;;;;;;;;;5073208;28;20029;-53
2021/01/01 05:51:29;;;;;;;346.40;72.65;;;;;;;;;;5073206;28;20044;-53
2021/01/01 05:54:11;;;;;;;335.52;75.30;;;;;;;;;;5055112;28;20036;-53
2021/01/01 05:56:38;;;;;;;160.07;54.03;;;;;;;;;;5059248;28;20028;-53
2021/01/01 05:59:05;;;;;;;428.55;54.63;;;;;;;;;;5073064;28;20024;-53
2021/01/01 06:01:35;;;;;;;267.67;51.22;;;;;;;;;;5073004;28;20032;-52
2021/01/01 06:04:03;;;;;;;141.45;47.72;;;;;;;;;;5072908;28;20028;-53
2021/01/01 06:06:33;;;;;;;220.88;52.42;;;;;;;;;;5072755;28;20476;-53
2021/01/01 06:09:03;;;;;;;137.02;46.97;;;;;;;;;;5072600;28;20028;-53
2021/01/01 06:11:34;;;;;;;203.95;57.00;;;;;;;;;;5054656;28;20029;-53
2021/01/01 06:14:03;;;;;;;223.48;51.70;;;;;;;;;;5072838;28;20039;-53
2021/01/01 06:16:31;;;;;;;228.18;52.03;;;;;;;;;;5083741;28;20032;-52
2021/01/01 06:18:58;;;;;;;143.38;46.28;;;;;;;;;;5071757;28;20031;-53
2021/01/01 06:21:32;;;;;;;257.67;73.88;;;;;;;;;;5072410;28;20089;-53
2021/01/01 06:24:01;;;;;;;265.20;50.60;;;;;;;;;;5071711;28;20056;-52
2021/01/01 06:26:27;;;;;;;247.65;58.88;;;;;;;;;;5072409;28;20024;-53
2021/01/01 06:28:54;;;;;;;223.75;58.78;;;;;;;;;;5072343;28;20070;-53
2021/01/01 06:31:20;;;;;;;346.15;72.10;;;;;;;;;;5072684;28;20028;-53
2021/01/01 06:33:46;;;;;;;412.08;61.75;;;;;;;;;;5072330;28;20020;-53
2021/01/01 06:36:31;;;;;;;258.65;59.67;;;;;;;;;;5072648;28;20111;-53
2021/01/01 06:38:57;;;;;;;209.65;58.45;;;;;;;;;;5054135;28;20408;-53
2021/01/01 06:41:42;;;;;;;431.00;72.05;;;;;;;;;;5072021;28;20032;-51
2021/01/01 06:44:08;;;;;;;206.05;66.90;;;;;;;;;;5071122;28;20024;-52
2021/01/01 06:46:35;;;;;;;237.95;58.92;;;;;;;;;;5062827;28;20021;-53
2021/01/01 06:49:02;;;;;;;164.43;54.55;;;;;;;;;;5052680;28;20469;-52
2021/01/01 06:51:30;;;;;;;205.45;58.00;;;;;;;;;;5053970;28;20461;-51
2021/01/01 06:53:58;;;;;;;206.02;57.50;;;;;;;;;;5053736;28;20100;-53
2021/01/01 06:56:24;;;;;;;234.70;69.07;;;;;;;;;;5065360;28;20033;-52
2021/01/01 06:59:07;;;;;;;252.77;67.53;;;;;;;;;;5053085;28;20025;-53
2021/01/01 07:01:39;;;;;;;206.88;59.58;;;;;;;;;;5065578;28;20029;-52
2021/01/01 07:04:05;;;;;;;;;;;;;;;;;;5065929;28;20376;-53
2021/01/01 07:06:31;;;;;;;180.13;58.60;;;;;;;;;;5071812;28;19908;-53
2021/01/01 07:08:57;;;;;;;316.63;59.05;;;;;;;;;;5071472;28;20021;-54
2021/01/01 07:11:23;;;;;;;198.38;64.75;;;;;;;;;;5071100;28;20033;-54
2021/01/01 07:13:49;;;;;;;197.90;64.15;;;;;;;;;;5071500;28;20024;-53
2021/01/01 07:16:17;;;;;;;211.63;55.35;;;;;;;;;;5071553;28;20495;-53
2021/01/01 07:18:43;;;;;;;261.23;67.72;;;;;;;;;;5071708;28;20036;-52
2021/01/01 07:21:14;;;;;;;183.40;60.60;;;;;;;;;;5071934;28;20024;-52
2021/01/01 07:23:40;;;;;;;210.75;67.55;;;;;;;;;;5071410;28;20532;-52
2021/01/01 07:26:06;;;;;;;214.82;74.00;;;;;;;;;;5071577;28;20059;-52
2021/01/01 07:28:33;;;;;;;203.57;66.60;;;;;;;;;;5071365;28;20047;-53
2021/01/01 07:30:59;;;;;;;161.85;59.65;;;;;;;;;;5071466;28;20040;-53
2021/01/01 07:33:26;;;;;;;277.45;75.68;;;;;;;;;;5071670;28;20025;-54
2021/01/01 07:35:55;;;;;;;226.68;72.65;;;;;;;;;;5073525;28;20028;-53
2021/01/01 07:38:22;;;;;;;212.40;70.15;;;;;;;;;;5071056;28;20024;-53
2021/01/01 07:40:49;;;;;;;408.77;121.43;;;;;;;;;;5074643;28;20553;-53
2021/01/01 07:43:16;;;;;;;258.30;85.40;;;;;;;;;;5073755;28;20028;-53
2021/01/01 07:45:42;;;;;;;226.93;84.28;;;;;;;;;;5064147;28;20037;-53
2021/01/01 07:48:08;;;;;;;322.20;82.53;;;;;;;;;;5058726;28;20025;-53
2021/01/01 07:50:35;;;;;;;203.70;71.57;;;;;;;;;;5074450;28;20414;-53
2021/01/01 07:53:11;;;;;;;245.50;73.82;;;;;;;;;;5061128;28;20374;-53
2021/01/01 07:55:38;;;;;;;157.40;60.58;;;;;;;;;;5075264;28;20029;-53
2021/01/01 07:58:07;;;;;;;150.32;56.72;;;;;;;;;;5075161;28;20020;-53
2021/01/01 08:00:33;;;;;;;179.57;67.93;;;;;;;;;;5065085;28;20035;-51
2021/01/01 08:03:00;;;;;;;219.25;79.10;;;;;;;;;;5074814;28;20503;-53
2021/01/01 08:05:26;;;;;;;210.85;77.40;;;;;;;;;;5075005;28;20029;-54
2021/01/01 08:07:53;;;;;;;202.63;68.82;;;;;;;;;;5074983;28;20025;-53
2021/01/01 08:10:34;;;;;;;162.15;65.72;;;;;;;;;;5074720;28;20475;-52
2021/01/01 08:13:00;;;;;;;188.77;62.35;;;;;;;;;;5074831;28;20043;-53
2021/01/01 08:15:29;;;;;;;167.63;60.53;;;;;;;;;;5074832;28;20096;-53
2021/01/01 08:17:55;;;;;;;280.70;108.50;;;;;;;;;;5062192;28;20457;-53
2021/01/01 08:20:21;;;;;;;166.30;65.60;;;;;;;;;;5072400;28;20487;-53
2021/01/01 08:22:48;;;;;;;235.00;102.03;;;;;;;;;;5072225;28;20031;-53
2021/01/01 08:25:15;;;;;;;159.52;68.78;;;;;;;;;;5067463;28;20040;-53
2021/01/01 08:27:41;;;;;;;141.68;62.90;;;;;;;;;;5074147;28;20031;-52
2021/01/01 08:30:08;;;;;;;140.90;57.67;;;;;;;;;;5061674;28;20051;-51
2021/01/01 08:32:35;;;;;;;124.13;54.00;;;;;;;;;;5065266;28;20056;-51
2021/01/01 08:35:01;;;;;;;130.75;56.28;;;;;;;;;;5062538;28;20525;-51
2021/01/01 08:37:28;;;;;;;111.93;50.83;;;;;;;;;;5054917;28;20209;-53
2021/01/01 08:40:04;;;;;;;105.90;48.00;;;;;;;;;;5056711;28;20389;-52
2021/01/01 08:42:34;;;;;;;129.95;56.83;;;;;;;;;;5055640;28;20045;-53
2021/01/01 08:45:01;;;;;;;127.97;54.05;;;;;;;;;;5056084;28;20051;-53
2021/01/01 08:47:39;;;;;;;124.95;55.67;;;;;;;;;;5057450;28;20017;-53
2021/01/01 08:50:17;;;;;;;123.47;53.78;;;;;;;;;;5056267;28;20507;-51
2021/01/01 08:52:43;;;;;;;113.97;49.70;;;;;;;;;;5058036;28;20121;-53
2021/01/01 08:55:09;;;;;;;102.72;47.83;;;;;;;;;;5055386;28;20400;-52
2021/01/01 08:57:35;;;;;;;99.47;42.90;;;;;;;;;;5057687;28;20014;-52
2021/01/01 09:00:02;;;;;;;130.48;61.78;;;;;;;;;;5055521;28;20104;-53
2021/01/01 09:02:29;;;;;;;97.57;45.47;;;;;;;;;;5055141;28;20071;-53
2021/01/01 09:04:58;;;;;;;104.82;47.30;;;;;;;;;;5055352;28;20111;-53
2021/01/01 09:07:25;;;;;;;121.68;52.92;;;;;;;;;;5053934;28;20060;-54
2021/01/01 09:09:52;;;;;;;127.47;55.05;;;;;;;;;;5064178;28;20036;-52
2021/01/01 09:12:19;;;;;;;325.33;158.25;;;;;;;;;;5066456;28;20032;-52
2021/01/01 09:14:50;;;;;;;217.02;111.15;;;;;;;;;;5054080;28;20043;-53
2021/01/01 09:17:16;;;;;;;156.38;75.38;;;;;;;;;;5063334;28;20028;-52
2021/01/01 09:19:42;;;;;;;128.70;55.67;;;;;;;;;;5073680;28;20063;-53
2021/01/01 09:22:12;;;;;;;140.70;63.83;;;;;;;;;;5073539;28;20024;-53
2021/01/01 09:24:39;;;;;;;175.15;94.07;;;;;;;;;;5067819;28;20037;-54
2021/01/01 09:27:05;;;;;;;204.77;92.93;;;;;;;;;;5072447;28;20039;-52
2021/01/01 09:29:31;;;;;;;164.85;74.00;;;;;;;;;;5073127;28;20033;-58
2021/01/01 09:31:57;;;;;;;443.88;246.10;;;;;;;;;;5050576;28;20472;-54
2021/01/01 09:34:23;;;;;;;354.45;178.55;;;;;;;;;;5064132;28;20051;-52
2021/01/01 09:36:49;;;;;;;288.02;141.82;;;;;;;;;;5065268;28;20136;-56
2021/01/01 09:39:15;;;;;;;346.70;170.88;;;;;;;;;;5057570;28;20025;-55
2021/01/01 09:41:47;;;;;;;417.02;210.88;;;;;;;;;;5064180;28;20029;-53
2021/01/01 09:44:13;;;;;;;335.37;164.43;;;;;;;;;;5071780;28;20113;-54
2021/01/01 09:46:45;;;;;;;121.15;57.33;;;;;;;;;;5052594;28;20395;-53
2021/01/01 09:49:11;;;;;;;110.18;55.03;;;;;;;;;;5075485;28;20541;-54
2021/01/01 09:51:41;;;;;;;92.50;42.65;;;;;;;;;;5072865;28;20028;-56
2021/01/01 09:54:07;;;;;;;112.63;51.70;;;;;;;;;;5071542;28;20086;-56
2021/01/01 09:56:34;;;;;;;163.82;82.05;;;;;;;;;;5069688;28;20087;-53
2021/01/01 09:59:01;;;;;;;131.75;64.32;;;;;;;;;;5071022;28;20487;-54
2021/01/01 10:01:31;;;;;;;132.23;62.63;;;;;;;;;;5072203;28;20040;-53
2021/01/01 10:03:57;;;;;;;110.95;49.97;;;;;;;;;;5069498;28;20032;-54
2021/01/01 10:06:23;;;;;;;114.65;52.65;;;;;;;;;;5072471;28;20032;-54
2021/01/01 10:08:49;;;;;;;115.22;55.17;;;;;;;;;;5072537;28;20123;-54
2021/01/01 10:11:16;;;;;;;153.73;81.15;;;;;;;;;;5072561;28;20035;-54
2021/01/01 10:13:42;;;;;;;145.90;73.90;;;;;;;;;;5072816;28;20048;-54
2021/01/01 10:16:11;;;;;;;245.95;131.10;;;;;;;;;;5072703;28;20013;-54
2021/01/01 10:18:40;;;;;;;229.27;124.95;;;;;;;;;;5072821;28;20025;-54
2021/01/01 10:21:08;;;;;;;152.32;78.43;;;;;;;;;;5072296;28;20046;-54
2021/01/01 10:23:34;;;;;;;133.65;68.53;;;;;;;;;;5072142;28;20024;-53
2021/01/01 10:26:00;;;;;;;123.80;61.67;;;;;;;;;;5072204;28;20029;-53
2021/01/01 10:28:26;;;;;;;132.43;71.35;;;;;;;;;;5071736;28;20564;-54
2021/01/01 10:30:52;;;;;;;117.03;60.15;;;;;;;;;;5072143;28;20032;-54
2021/01/01 10:33:18;;;;;;;125.82;63.17;;;;;;;;;;5072226;28;20103;-53
2021/01/01 10:35:44;;;;;;;128.15;68.63;;;;;;;;;;5072236;28;20035;-53
2021/01/01 10:38:10;;;;;;;131.35;70.88;;;;;;;;;;5071956;28;20047;-54
2021/01/01 10:40:37;;;;;;;129.82;66.80;;;;;;;;;;5072203;28;20380;-53
2021/01/01 10:43:03;;;;;;;119.45;59.58;;;;;;;;;;5072089;28;20606;-54
2021/01/01 10:45:29;;;;;;;175.60;96.95;;;;;;;;;;5072234;28;20025;-53
2021/01/01 10:47:55;;;;;;;132.68;70.35;;;;;;;;;;5072241;28;20027;-53
2021/01/01 10:50:21;;;;;;;233.23;136.02;;;;;;;;;;5071603;28;20047;-54
2021/01/01 10:52:47;;;;;;;190.02;103.72;;;;;;;;;;5071820;28;20498;-53
2021/01/01 10:55:13;;;;;;;311.25;179.25;;;;;;;;;;5072217;28;20369;-53
2021/01/01 10:57:39;;;;;;;166.82;87.47;;;;;;;;;;5071945;28;20055;-53
2021/01/01 11:00:07;;;;;;;177.18;94.10;;;;;;;;;;5071967;28;20051;-54
2021/01/01 11:02:33;;;;;;;238.65;131.80;;;;;;;;;;5071943;28;20031;-54
2021/01/01 11:04:59;;;;;;;224.30;125.53;;;;;;;;;;5072009;28;20032;-53
2021/01/01 11:07:25;;;;;;;139.73;75.82;;;;;;;;;;5071552;28;20070;-53
2021/01/01 11:09:51;;;;;;;138.75;75.22;;;;;;;;;;5072003;28;20119;-54
2021/01/01 11:12:17;;;;;;;148.27;81.40;;;;;;;;;;5075714;28;20025;-54
2021/01/01 12:23:28;;;;;;;129.05;82.90;;;;;;;;;;5061620;28;20051;-55
2021/01/01 12:25:54;;;;;;;125.32;79.95;;;;;;;;;;5034915;28;20049;-54
2021/01/01 12:28:20;;;;;;;130.27;84.70;;;;;;;;;;5034963;28;20037;-55
2021/01/01 12:30:46;;;;;;;126.78;83.03;;;;;;;;;;5034678;28;20037;-55
2021/01/01 12:33:13;;;;;;;125.57;82.70;;;;;;;;;;5035339;28;20495;-55
2021/01/01 12:35:39;;;;;;;129.38;83.40;;;;;;;;;;5034737;28;20121;-56
2021/01/01 12:38:07;;;;;;;125.63;83.30;;;;;;;;;;5034177;28;20414;-56
2021/01/01 12:40:34;;;;;;;128.27;82.97;;;;;;;;;;5034406;28;20029;-55
2021/01/01 12:43:01;;;;;;;139.30;89.13;;;;;;;;;;5033334;28;20385;-53
2021/01/01 12:45:27;;;;;;;131.90;83.75;;;;;;;;;;5023943;28;20026;-55
2021/01/01 12:47:53;;;;;;;120.32;77.38;;;;;;;;;;5034434;28;20025;-54
2021/01/01 12:50:19;;;;;;;129.65;81.95;;;;;;;;;;5033979;28;20405;-54
2021/01/01 12:52:59;;;;;;;128.30;82.07;;;;;;;;;;5034325;28;20018;-53
2021/01/01 12:55:25;;;;;;;141.65;91.63;;;;;;;;;;5034255;28;20374;-56
2021/01/01 12:57:51;;;;;;;134.25;87.13;;;;;;;;;;5034214;28;20032;-55
2021/01/01 13:00:18;;;;;;;116.05;76.50;;;;;;;;;;5033066;28;20030;-55
2021/01/01 13:02:44;;;;;;;118.25;80.43;;;;;;;;;;5034309;28;20426;-55
2021/01/01 13:05:11;;;;;;;129.70;84.30;;;;;;;;;;5034156;28;20025;-55
2021/01/01 13:07:42;;;;;;;157.43;90.97;;;;;;;;;;5033871;28;20022;-55
2021/01/01 13:10:08;;;;;;;120.80;77.77;;;;;;;;;;5031219;28;20033;-55
2021/01/01 13:12:36;;;;;;;137.65;92.20;;;;;;;;;;5021258;28;20029;-55
2021/01/01 13:15:02;;;;;;;111.85;72.63;;;;;;;;;;5033958;28;20028;-55
2021/01/01 13:17:28;;;;;;;107.85;69.93;;;;;;;;;;5033898;28;20424;-56
2021/01/01 13:19:54;;;;;;;104.55;70.05;;;;;;;;;;5033308;28;20025;-54
2021/01/01 13:22:20;;;;;;;124.53;83.93;;;;;;;;;;5033633;28;20022;-55
2021/01/01 13:24:46;;;;;;;111.85;75.68;;;;;;;;;;5055340;28;20052;-55
2021/01/01 13:27:12;;;;;;;114.75;75.35;;;;;;;;;;5073220;28;20031;-56
2021/01/01 13:29:39;;;;;;;135.18;86.82;;;;;;;;;;5061264;28;20112;-55
2021/01/01 13:32:05;;;;;;;126.47;79.82;;;;;;;;;;5073566;28;20479;-55
2021/01/01 13:34:31;;;;;;;134.63;92.40;;;;;;;;;;5073179;28;20074;-55
2021/01/01 13:36:57;;;;;;;122.78;79.90;;;;;;;;;;5063133;28;20694;-56
2021/01/01 13:39:23;;;;;;;119.80;76.07;;;;;;;;;;5072751;28;20491;-52
2021/01/01 13:41:51;;;;;;;129.77;82.88;;;;;;;;;;5067725;28;20376;-56
2021/01/01 13:44:17;;;;;;;164.65;117.25;;;;;;;;;;5071551;28;20033;-55
2021/01/01 13:46:43;;;;;;;138.00;88.25;;;;;;;;;;5061277;28;20040;-54
2021/01/01 13:49:09;;;;;;;143.07;91.82;;;;;;;;;;5063559;28;20028;-55
2021/01/01 13:51:36;;;;;;;138.27;86.40;;;;;;;;;;5053183;28;20033;-53
2021/01/01 13:54:03;;;;;;;143.60;87.93;;;;;;;;;;5065632;28;20095;-52
2021/01/01 13:56:29;;;;;;;141.80;91.47;;;;;;;;;;5072420;28;20496;-56
2021/01/01 13:58:55;;;;;;;138.63;86.75;;;;;;;;;;5072441;28;20433;-55
2021/01/01 14:01:22;;;;;;;152.50;96.40;;;;;;;;;;5072341;28;20016;-56
2021/01/01 14:03:49;;;;;;;165.48;105.63;;;;;;;;;;5071368;28;20081;-55
2021/01/01 14:06:15;;;;;;;169.63;108.07;;;;;;;;;;5061349;28;20035;-55
2021/01/01 14:08:41;;;;;;;151.45;90.35;;;;;;;;;;5072247;28;20055;-53
2021/01/01 14:11:07;;;;;;;167.60;102.88;;;;;;;;;;5072108;28;20385;-51
2021/01/01 14:13:33;;;;;;;154.73;91.88;;;;;;;;;;5065130;28;20074;-54
2021/01/01 14:15:59;;;;;;;158.27;93.63;;;;;;;;;;5053343;28;20037;-54
2021/01/01 14:18:25;;;;;;;163.07;96.68;;;;;;;;;;5058305;28;20019;-54
2021/01/01 14:20:52;;;;;;;189.77;112.50;;;;;;;;;;5056944;28;20111;-54
2021/01/01 14:23:19;;;;;;;171.95;101.20;;;;;;;;;;5062735;28;20025;-54
2021/01/01 14:25:45;;;;;;;177.02;107.65;;;;;;;;;;5052972;28;20496;-52
2021/01/01 14:28:11;;;;;;;188.25;115.97;;;;;;;;;;5059520;28;20028;-54
2021/01/01 14:30:40;;;;;;;180.75;111.20;;;;;;;;;;5061801;28;20090;-53
2021/01/01 14:33:08;;;;;;;177.38;101.75;;;;;;;;;;5063199;28;20345;-53
2021/01/01 14:35:37;;;;;;;208.02;122.35;;;;;;;;;;5053633;28;20033;-52
2021/01/01 14:38:06;;;;;;;270.75;156.50;;;;;;;;;;5055143;28;20473;-52
2021/01/01 14:40:32;;;;;;;213.07;120.50;;;;;;;;;;5060056;28;20067;-51
2021/01/01 14:42:58;;;;;;;243.18;138.88;;;;;;;;;;5051036;28;20021;-52
2021/01/01 14:45:24;;;;;;;286.95;160.48;;;;;;;;;;5054643;28;20270;-53
2021/01/01 14:47:50;;;;;;;292.55;160.15;;;;;;;;;;5065626;28;20039;-54
2021/01/01 14:50:17;;;;;;;284.67;156.82;;;;;;;;;;5071496;28;20101;-53
2021/01/01 14:52:43;;;;;;;310.38;175.90;;;;;;;;;;5062186;28;20024;-53
2021/01/01 14:55:09;;;;;;;243.82;133.10;;;;;;;;;;5071201;28;20499;-54
2021/01/01 14:57:36;;;;;;;203.02;114.97;;;;;;;;;;5070887;28;20025;-53
2021/01/01 15:00:04;;;;;;;192.27;105.57;;;;;;;;;;5072541;28;20036;-54
2021/01/01 15:02:30;;;;;;;204.02;112.32;;;;;;;;;;5078230;28;20059;-52
2021/01/01 15:04:56;;;;;;;336.83;206.75;;;;;;;;;;5072857;28;20063;-51
2021/01/01 15:07:22;;;;;;;229.10;129.35;;;;;;;;;;5072231;28;20032;-53
2021/01/01 15:09:48;;;;;;;255.80;143.27;;;;;;;;;;5056116;28;20080;-53
2021/01/01 15:12:14;;;;;;;264.20;153.27;;;;;;;;;;5059305;28;20510;-54